VCBI/CMB METAR and TAF weather

Enter ICAO airport designator
Station Type Date Time Source
VCBI METAR 2022/11/30 17:10 UTC NOAA

VCBI 301710Z 09003KT 9000 NSC 27/25 Q1011 NOSIG


Station Type Date Time Source
VCBI Decoded METAR 2022/11/30 17:10 UTC NOAA

Katunayake, Sri Lanka (VCBI) 07-10N 079-53E 8M
Nov 30, 2022 - 12:10 PM EST / 2022.11.30 1710 UTC
Wind: from the E (090 degrees) at 3 MPH (3 KT):0
Visibility: 5 mile(s):0
Temperature: 80 F (27 C)
Dew Point: 77 F (25 C)
Relative Humidity: 88%
Pressure (altimeter): 29.85 in. Hg (1011 hPa)
ob: VCBI 301710Z 09003KT 9000 NSC 27/25 Q1011 NOSIG
cycle: 17

Station Type Date Time Source
VCBI TAF 2022/11/30 18:06 UTC NOAA

TAF TAF VCBI 301700Z 3018/0124 VRB05KT 9000 NSC TX32/0107Z TN23/0100Z
TEMPO 0100/0103 7000

Example: see airport list